sensor_id;sensor_type;location;lat;lon;timestamp;temperature;humidity
11922;DHT22;6021;51.182;3.160;2023-06-19T00:01:24;18.70;99.90
11922;DHT22;6021;51.182;3.160;2023-06-19T00:03:54;18.80;99.90
11922;DHT22;6021;51.182;3.160;2023-06-19T00:06:22;18.70;99.90
11922;DHT22;6021;51.182;3.160;2023-06-19T00:08:51;18.70;99.90
11922;DHT22;6021;51.182;3.160;2023-06-19T00:11:19;18.70;99.90
11922;DHT22;6021;51.182;3.160;2023-06-19T00:13:50;18.60;99.90
11922;DHT22;6021;51.182;3.160;2023-06-19T00:16:18;18.70;99.90
11922;DHT22;6021;51.182;3.160;2023-06-19T00:18:47;18.60;99.90
11922;DHT22;6021;51.182;3.160;2023-06-19T00:21:15;18.70;99.90
11922;DHT22;6021;51.182;3.160;2023-06-19T00:23:43;18.80;99.90
11922;DHT22;6021;51.182;3.160;2023-06-19T00:26:12;18.70;99.90
11922;DHT22;6021;51.182;3.160;2023-06-19T00:28:41;18.80;99.90
11922;DHT22;6021;51.182;3.160;2023-06-19T00:31:12;18.70;99.90
11922;DHT22;6021;51.182;3.160;2023-06-19T00:33:43;18.70;99.90
11922;DHT22;6021;51.182;3.160;2023-06-19T00:36:15;18.70;99.90
11922;DHT22;6021;51.182;3.160;2023-06-19T00:38:46;18.70;99.90
11922;DHT22;6021;51.182;3.160;2023-06-19T00:41:18;18.60;99.90
11922;DHT22;6021;51.182;3.160;2023-06-19T00:43:46;18.50;99.90
11922;DHT22;6021;51.182;3.160;2023-06-19T00:46:14;18.50;99.90
11922;DHT22;6021;51.182;3.160;2023-06-19T00:48:43;18.60;99.90
11922;DHT22;6021;51.182;3.160;2023-06-19T00:51:12;18.50;99.90
11922;DHT22;6021;51.182;3.160;2023-06-19T00:53:40;18.40;99.90
11922;DHT22;6021;51.182;3.160;2023-06-19T00:56:09;18.50;99.90
11922;DHT22;6021;51.182;3.160;2023-06-19T00:58:37;18.40;99.90
11922;DHT22;6021;51.182;3.160;2023-06-19T01:01:09;18.50;99.90
11922;DHT22;6021;51.182;3.160;2023-06-19T01:03:37;18.50;99.90
11922;DHT22;6021;51.182;3.160;2023-06-19T01:06:13;18.40;99.90
11922;DHT22;6021;51.182;3.160;2023-06-19T01:11:24;18.20;99.90
11922;DHT22;6021;51.182;3.160;2023-06-19T01:14:08;18.20;99.90
11922;DHT22;6021;51.182;3.160;2023-06-19T01:16:30;18.20;99.90
11922;DHT22;6021;51.182;3.160;2023-06-19T01:19:00;18.20;99.90
11922;DHT22;6021;51.182;3.160;2023-06-19T01:21:28;18.20;99.90
11922;DHT22;6021;51.182;3.160;2023-06-19T01:23:57;18.20;99.90
11922;DHT22;6021;51.182;3.160;2023-06-19T01:26:25;18.20;99.90
11922;DHT22;6021;51.182;3.160;2023-06-19T01:28:55;18.20;99.90
11922;DHT22;6021;51.182;3.160;2023-06-19T01:31:31;18.20;99.90
11922;DHT22;6021;51.182;3.160;2023-06-19T01:33:56;18.10;99.90
11922;DHT22;6021;51.182;3.160;2023-06-19T01:36:26;18.10;99.90
11922;DHT22;6021;51.182;3.160;2023-06-19T01:38:56;18.10;99.90
11922;DHT22;6021;51.182;3.160;2023-06-19T01:41:26;18.10;99.90
11922;DHT22;6021;51.182;3.160;2023-06-19T01:43:56;18.10;99.90
11922;DHT22;6021;51.182;3.160;2023-06-19T01:46:25;18.10;99.90
11922;DHT22;6021;51.182;3.160;2023-06-19T01:48:54;18.00;99.90
11922;DHT22;6021;51.182;3.160;2023-06-19T01:51:23;18.00;99.90
11922;DHT22;6021;51.182;3.160;2023-06-19T01:53:51;17.80;99.90
11922;DHT22;6021;51.182;3.160;2023-06-19T01:56:19;18.00;99.90
11922;DHT22;6021;51.182;3.160;2023-06-19T01:58:48;17.90;99.90
11922;DHT22;6021;51.182;3.160;2023-06-19T02:01:16;17.70;99.90
11922;DHT22;6021;51.182;3.160;2023-06-19T02:03:44;17.60;99.90
11922;DHT22;6021;51.182;3.160;2023-06-19T02:06:13;17.60;99.90
11922;DHT22;6021;51.182;3.160;2023-06-19T02:08:41;17.60;99.90
11922;DHT22;6021;51.182;3.160;2023-06-19T02:11:10;17.50;99.90
11922;DHT22;6021;51.182;3.160;2023-06-19T02:13:38;17.40;99.90
11922;DHT22;6021;51.182;3.160;2023-06-19T02:16:06;17.50;99.90
11922;DHT22;6021;51.182;3.160;2023-06-19T02:18:35;17.30;99.90
11922;DHT22;6021;51.182;3.160;2023-06-19T02:21:03;17.30;99.90
11922;DHT22;6021;51.182;3.160;2023-06-19T02:23:31;17.10;99.90
11922;DHT22;6021;51.182;3.160;2023-06-19T02:26:00;17.10;99.90
11922;DHT22;6021;51.182;3.160;2023-06-19T02:28:28;17.10;99.90
11922;DHT22;6021;51.182;3.160;2023-06-19T02:30:56;16.90;99.90
11922;DHT22;6021;51.182;3.160;2023-06-19T02:33:25;16.80;99.90
11922;DHT22;6021;51.182;3.160;2023-06-19T02:35:53;16.80;99.90
11922;DHT22;6021;51.182;3.160;2023-06-19T02:38:23;17.00;99.90
11922;DHT22;6021;51.182;3.160;2023-06-19T02:40:51;17.00;99.90
11922;DHT22;6021;51.182;3.160;2023-06-19T02:43:20;16.90;99.90
11922;DHT22;6021;51.182;3.160;2023-06-19T02:45:48;16.80;99.90
11922;DHT22;6021;51.182;3.160;2023-06-19T02:48:17;16.80;99.90
11922;DHT22;6021;51.182;3.160;2023-06-19T02:50:46;16.70;99.90
11922;DHT22;6021;51.182;3.160;2023-06-19T02:53:14;16.70;99.90
11922;DHT22;6021;51.182;3.160;2023-06-19T02:55:43;16.70;99.90
11922;DHT22;6021;51.182;3.160;2023-06-19T02:58:12;16.70;99.90
11922;DHT22;6021;51.182;3.160;2023-06-19T03:00:40;16.70;99.90
11922;DHT22;6021;51.182;3.160;2023-06-19T03:03:09;16.70;99.90
11922;DHT22;6021;51.182;3.160;2023-06-19T03:05:37;16.70;99.90
11922;DHT22;6021;51.182;3.160;2023-06-19T03:08:06;16.60;99.90
11922;DHT22;6021;51.182;3.160;2023-06-19T03:10:34;16.70;99.90
11922;DHT22;6021;51.182;3.160;2023-06-19T03:13:02;16.80;99.90
11922;DHT22;6021;51.182;3.160;2023-06-19T03:15:31;16.70;99.90
11922;DHT22;6021;51.182;3.160;2023-06-19T03:17:59;16.70;99.90
11922;DHT22;6021;51.182;3.160;2023-06-19T03:20:29;16.60;99.90
11922;DHT22;6021;51.182;3.160;2023-06-19T03:22:57;16.70;99.90
11922;DHT22;6021;51.182;3.160;2023-06-19T03:25:25;16.60;99.90
11922;DHT22;6021;51.182;3.160;2023-06-19T03:27:54;16.50;99.90
11922;DHT22;6021;51.182;3.160;2023-06-19T03:30:22;16.60;99.90
11922;DHT22;6021;51.182;3.160;2023-06-19T03:32:50;16.50;99.90
11922;DHT22;6021;51.182;3.160;2023-06-19T03:35:19;16.60;99.90
11922;DHT22;6021;51.182;3.160;2023-06-19T03:37:47;16.40;99.90
11922;DHT22;6021;51.182;3.160;2023-06-19T03:40:16;16.50;99.90
11922;DHT22;6021;51.182;3.160;2023-06-19T03:42:44;16.40;99.90
11922;DHT22;6021;51.182;3.160;2023-06-19T03:45:13;16.40;99.90
11922;DHT22;6021;51.182;3.160;2023-06-19T03:47:41;16.40;99.90
11922;DHT22;6021;51.182;3.160;2023-06-19T03:50:09;16.20;99.90
11922;DHT22;6021;51.182;3.160;2023-06-19T03:52:38;16.20;99.90
11922;DHT22;6021;51.182;3.160;2023-06-19T03:55:06;16.60;99.90
11922;DHT22;6021;51.182;3.160;2023-06-19T03:57:35;16.40;99.90
11922;DHT22;6021;51.182;3.160;2023-06-19T04:00:04;16.40;99.90
11922;DHT22;6021;51.182;3.160;2023-06-19T04:02:34;16.50;99.90
11922;DHT22;6021;51.182;3.160;2023-06-19T04:05:03;16.40;99.90
11922;DHT22;6021;51.182;3.160;2023-06-19T04:07:31;16.40;99.90
11922;DHT22;6021;51.182;3.160;2023-06-19T04:09:59;16.30;99.90
11922;DHT22;6021;51.182;3.160;2023-06-19T04:12:28;16.30;99.90
11922;DHT22;6021;51.182;3.160;2023-06-19T04:14:56;16.50;99.90
11922;DHT22;6021;51.182;3.160;2023-06-19T04:17:25;16.40;99.90
11922;DHT22;6021;51.182;3.160;2023-06-19T04:19:53;16.40;99.90
11922;DHT22;6021;51.182;3.160;2023-06-19T04:22:21;16.30;99.90
11922;DHT22;6021;51.182;3.160;2023-06-19T04:24:50;16.30;99.90
11922;DHT22;6021;51.182;3.160;2023-06-19T04:27:18;16.30;99.90
11922;DHT22;6021;51.182;3.160;2023-06-19T04:29:46;16.40;99.90
11922;DHT22;6021;51.182;3.160;2023-06-19T04:32:15;16.50;99.90
11922;DHT22;6021;51.182;3.160;2023-06-19T04:34:43;16.40;99.90
11922;DHT22;6021;51.182;3.160;2023-06-19T04:37:14;16.50;99.90
11922;DHT22;6021;51.182;3.160;2023-06-19T04:39:49;16.50;99.90
11922;DHT22;6021;51.182;3.160;2023-06-19T04:42:15;16.60;99.90
11922;DHT22;6021;51.182;3.160;2023-06-19T04:44:49;16.60;99.90
11922;DHT22;6021;51.182;3.160;2023-06-19T04:47:19;16.60;99.90
11922;DHT22;6021;51.182;3.160;2023-06-19T04:49:48;16.70;99.90
11922;DHT22;6021;51.182;3.160;2023-06-19T04:52:16;16.60;99.90
11922;DHT22;6021;51.182;3.160;2023-06-19T04:54:46;16.60;99.90
11922;DHT22;6021;51.182;3.160;2023-06-19T04:57:15;16.70;99.90
11922;DHT22;6021;51.182;3.160;2023-06-19T04:59:44;16.70;99.90
11922;DHT22;6021;51.182;3.160;2023-06-19T05:02:12;16.70;99.90
11922;DHT22;6021;51.182;3.160;2023-06-19T05:04:41;16.40;99.90
11922;DHT22;6021;51.182;3.160;2023-06-19T05:07:10;16.60;99.90
11922;DHT22;6021;51.182;3.160;2023-06-19T05:09:40;16.60;99.90
11922;DHT22;6021;51.182;3.160;2023-06-19T05:12:09;16.80;99.90
11922;DHT22;6021;51.182;3.160;2023-06-19T05:14:37;16.50;99.90
11922;DHT22;6021;51.182;3.160;2023-06-19T05:17:06;16.50;99.90
11922;DHT22;6021;51.182;3.160;2023-06-19T05:19:36;16.50;99.90
11922;DHT22;6021;51.182;3.160;2023-06-19T05:22:05;16.50;99.90
11922;DHT22;6021;51.182;3.160;2023-06-19T05:24:33;16.50;99.90
11922;DHT22;6021;51.182;3.160;2023-06-19T05:27:02;16.70;99.90
11922;DHT22;6021;51.182;3.160;2023-06-19T05:29:31;16.70;99.90
11922;DHT22;6021;51.182;3.160;2023-06-19T05:31:59;16.80;99.90
11922;DHT22;6021;51.182;3.160;2023-06-19T05:34:28;16.70;99.90
11922;DHT22;6021;51.182;3.160;2023-06-19T05:36:57;16.80;99.90
11922;DHT22;6021;51.182;3.160;2023-06-19T05:39:27;16.80;99.90
11922;DHT22;6021;51.182;3.160;2023-06-19T05:41:56;16.90;99.90
11922;DHT22;6021;51.182;3.160;2023-06-19T05:44:24;16.80;99.90
11922;DHT22;6021;51.182;3.160;2023-06-19T05:46:53;16.90;99.90
11922;DHT22;6021;51.182;3.160;2023-06-19T05:49:21;16.90;99.90
11922;DHT22;6021;51.182;3.160;2023-06-19T05:51:50;16.80;99.90
11922;DHT22;6021;51.182;3.160;2023-06-19T05:54:18;16.80;99.90
11922;DHT22;6021;51.182;3.160;2023-06-19T05:56:46;16.80;99.90
11922;DHT22;6021;51.182;3.160;2023-06-19T05:59:16;16.80;99.90
11922;DHT22;6021;51.182;3.160;2023-06-19T06:01:45;16.70;99.90
11922;DHT22;6021;51.182;3.160;2023-06-19T06:04:13;16.80;99.90
11922;DHT22;6021;51.182;3.160;2023-06-19T06:06:42;16.80;99.90
11922;DHT22;6021;51.182;3.160;2023-06-19T06:09:10;16.80;99.90
11922;DHT22;6021;51.182;3.160;2023-06-19T06:11:39;16.90;99.90
11922;DHT22;6021;51.182;3.160;2023-06-19T06:14:07;16.80;99.90
11922;DHT22;6021;51.182;3.160;2023-06-19T06:16:36;16.90;99.90
11922;DHT22;6021;51.182;3.160;2023-06-19T06:19:06;17.00;99.90
11922;DHT22;6021;51.182;3.160;2023-06-19T06:21:34;16.80;99.90
11922;DHT22;6021;51.182;3.160;2023-06-19T06:24:03;16.80;99.90
11922;DHT22;6021;51.182;3.160;2023-06-19T06:26:31;16.90;99.90
11922;DHT22;6021;51.182;3.160;2023-06-19T06:29:00;17.00;99.90
11922;DHT22;6021;51.182;3.160;2023-06-19T06:31:28;17.00;99.90
11922;DHT22;6021;51.182;3.160;2023-06-19T06:33:57;17.30;99.90
11922;DHT22;6021;51.182;3.160;2023-06-19T06:36:26;17.10;99.90
11922;DHT22;6021;51.182;3.160;2023-06-19T06:38:54;17.10;99.90
11922;DHT22;6021;51.182;3.160;2023-06-19T06:41:22;17.20;99.90
11922;DHT22;6021;51.182;3.160;2023-06-19T06:43:51;17.20;99.90
11922;DHT22;6021;51.182;3.160;2023-06-19T06:46:19;17.10;99.90
11922;DHT22;6021;51.182;3.160;2023-06-19T06:48:48;17.20;99.90
11922;DHT22;6021;51.182;3.160;2023-06-19T06:51:16;17.50;99.90
11922;DHT22;6021;51.182;3.160;2023-06-19T06:53:44;17.50;99.90
11922;DHT22;6021;51.182;3.160;2023-06-19T06:56:13;17.50;99.90
11922;DHT22;6021;51.182;3.160;2023-06-19T06:58:42;17.40;99.90
11922;DHT22;6021;51.182;3.160;2023-06-19T07:01:12;17.40;99.90
11922;DHT22;6021;51.182;3.160;2023-06-19T07:03:40;17.30;99.90
11922;DHT22;6021;51.182;3.160;2023-06-19T07:06:08;17.30;99.90
11922;DHT22;6021;51.182;3.160;2023-06-19T07:08:37;17.30;99.90
11922;DHT22;6021;51.182;3.160;2023-06-19T07:11:08;17.30;99.90
11922;DHT22;6021;51.182;3.160;2023-06-19T07:13:37;17.50;99.90
11922;DHT22;6021;51.182;3.160;2023-06-19T07:16:05;17.50;99.90
11922;DHT22;6021;51.182;3.160;2023-06-19T07:18:33;17.60;99.90
11922;DHT22;6021;51.182;3.160;2023-06-19T07:21:06;17.60;99.90
11922;DHT22;6021;51.182;3.160;2023-06-19T07:23:35;17.50;99.90
11922;DHT22;6021;51.182;3.160;2023-06-19T07:26:03;17.50;99.90
11922;DHT22;6021;51.182;3.160;2023-06-19T07:28:32;17.60;99.90
11922;DHT22;6021;51.182;3.160;2023-06-19T07:31:00;17.70;99.90
11922;DHT22;6021;51.182;3.160;2023-06-19T07:33:28;17.90;99.90
11922;DHT22;6021;51.182;3.160;2023-06-19T07:35:57;18.30;99.90
11922;DHT22;6021;51.182;3.160;2023-06-19T07:38:25;18.20;99.90
11922;DHT22;6021;51.182;3.160;2023-06-19T07:40:54;18.30;99.90
11922;DHT22;6021;51.182;3.160;2023-06-19T07:43:22;18.30;99.90
11922;DHT22;6021;51.182;3.160;2023-06-19T07:45:50;18.30;99.90
11922;DHT22;6021;51.182;3.160;2023-06-19T07:48:19;18.30;99.90
11922;DHT22;6021;51.182;3.160;2023-06-19T07:50:47;18.30;99.90
11922;DHT22;6021;51.182;3.160;2023-06-19T07:53:16;18.30;99.90
11922;DHT22;6021;51.182;3.160;2023-06-19T07:55:44;18.30;99.90
11922;DHT22;6021;51.182;3.160;2023-06-19T07:58:12;18.50;99.90
11922;DHT22;6021;51.182;3.160;2023-06-19T08:00:41;18.60;99.90
11922;DHT22;6021;51.182;3.160;2023-06-19T08:03:09;18.70;99.90
11922;DHT22;6021;51.182;3.160;2023-06-19T08:05:37;18.70;99.90
11922;DHT22;6021;51.182;3.160;2023-06-19T08:08:06;18.90;99.90
11922;DHT22;6021;51.182;3.160;2023-06-19T08:10:34;19.00;99.90
11922;DHT22;6021;51.182;3.160;2023-06-19T08:13:02;18.90;99.90
11922;DHT22;6021;51.182;3.160;2023-06-19T08:15:31;18.80;99.90
11922;DHT22;6021;51.182;3.160;2023-06-19T08:17:59;18.70;99.90
11922;DHT22;6021;51.182;3.160;2023-06-19T08:20:28;18.90;99.90
11922;DHT22;6021;51.182;3.160;2023-06-19T08:22:56;19.00;99.90
11922;DHT22;6021;51.182;3.160;2023-06-19T08:25:24;19.00;99.90
11922;DHT22;6021;51.182;3.160;2023-06-19T08:27:53;19.00;99.90
11922;DHT22;6021;51.182;3.160;2023-06-19T08:30:21;19.30;99.90
11922;DHT22;6021;51.182;3.160;2023-06-19T08:32:49;19.20;99.90
11922;DHT22;6021;51.182;3.160;2023-06-19T08:35:18;19.30;99.90
11922;DHT22;6021;51.182;3.160;2023-06-19T08:37:46;19.30;99.90
11922;DHT22;6021;51.182;3.160;2023-06-19T08:40:15;19.30;99.90
11922;DHT22;6021;51.182;3.160;2023-06-19T08:42:43;19.40;99.90
11922;DHT22;6021;51.182;3.160;2023-06-19T08:45:11;19.50;99.90
11922;DHT22;6021;51.182;3.160;2023-06-19T08:47:41;19.50;99.90
11922;DHT22;6021;51.182;3.160;2023-06-19T08:50:09;19.40;99.90
11922;DHT22;6021;51.182;3.160;2023-06-19T08:52:38;19.60;99.90
11922;DHT22;6021;51.182;3.160;2023-06-19T08:55:07;19.60;99.90
11922;DHT22;6021;51.182;3.160;2023-06-19T08:57:39;19.70;99.90
11922;DHT22;6021;51.182;3.160;2023-06-19T09:00:09;19.70;99.90
11922;DHT22;6021;51.182;3.160;2023-06-19T09:02:42;19.90;99.90
11922;DHT22;6021;51.182;3.160;2023-06-19T09:05:15;19.80;99.90
11922;DHT22;6021;51.182;3.160;2023-06-19T09:07:53;19.70;99.90
11922;DHT22;6021;51.182;3.160;2023-06-19T09:10:16;19.80;99.20
11922;DHT22;6021;51.182;3.160;2023-06-19T09:13:02;20.00;99.90
11922;DHT22;6021;51.182;3.160;2023-06-19T09:15:33;20.00;99.90
11922;DHT22;6021;51.182;3.160;2023-06-19T09:18:03;20.00;93.80
11922;DHT22;6021;51.182;3.160;2023-06-19T09:20:33;20.10;68.80
11922;DHT22;6021;51.182;3.160;2023-06-19T09:23:03;20.10;86.90
11922;DHT22;6021;51.182;3.160;2023-06-19T09:25:31;20.10;77.00
11922;DHT22;6021;51.182;3.160;2023-06-19T09:28:00;20.00;93.50
11922;DHT22;6021;51.182;3.160;2023-06-19T09:30:28;20.00;74.70
11922;DHT22;6021;51.182;3.160;2023-06-19T09:33:06;20.10;71.40
11922;DHT22;6021;51.182;3.160;2023-06-19T09:35:31;20.00;57.80
11922;DHT22;6021;51.182;3.160;2023-06-19T09:37:59;19.90;59.10
11922;DHT22;6021;51.182;3.160;2023-06-19T09:40:29;19.90;77.20
11922;DHT22;6021;51.182;3.160;2023-06-19T09:42:58;20.10;66.00
11922;DHT22;6021;51.182;3.160;2023-06-19T09:45:29;20.10;55.80
11922;DHT22;6021;51.182;3.160;2023-06-19T09:47:59;20.30;49.50
11922;DHT22;6021;51.182;3.160;2023-06-19T09:50:27;20.50;52.80
11922;DHT22;6021;51.182;3.160;2023-06-19T09:52:57;20.50;16.20
11922;DHT22;6021;51.182;3.160;2023-06-19T09:55:26;20.60;23.10
11922;DHT22;6021;51.182;3.160;2023-06-19T09:57:58;20.70;5.50
11922;DHT22;6021;51.182;3.160;2023-06-19T10:00:28;20.80;1.00
11922;DHT22;6021;51.182;3.160;2023-06-19T10:02:58;20.60;1.00
11922;DHT22;6021;51.182;3.160;2023-06-19T10:05:31;20.50;2.60
11922;DHT22;6021;51.182;3.160;2023-06-19T10:08:00;20.60;1.00
11922;DHT22;6021;51.182;3.160;2023-06-19T10:10:29;20.50;1.90
11922;DHT22;6021;51.182;3.160;2023-06-19T10:12:59;20.50;1.00
11922;DHT22;6021;51.182;3.160;2023-06-19T10:15:28;20.40;1.00
11922;DHT22;6021;51.182;3.160;2023-06-19T10:18:07;20.50;1.00
11922;DHT22;6021;51.182;3.160;2023-06-19T10:20:36;20.50;1.00
11922;DHT22;6021;51.182;3.160;2023-06-19T10:23:14;20.70;1.00
11922;DHT22;6021;51.182;3.160;2023-06-19T10:25:47;20.80;1.00
11922;DHT22;6021;51.182;3.160;2023-06-19T10:28:21;20.80;1.00
11922;DHT22;6021;51.182;3.160;2023-06-19T10:31:04;21.00;1.00
11922;DHT22;6021;51.182;3.160;2023-06-19T10:33:34;21.10;1.00
11922;DHT22;6021;51.182;3.160;2023-06-19T10:36:23;21.20;1.00
11922;DHT22;6021;51.182;3.160;2023-06-19T10:38:53;21.30;1.00
11922;DHT22;6021;51.182;3.160;2023-06-19T10:41:23;21.50;1.00
11922;DHT22;6021;51.182;3.160;2023-06-19T10:46:34;21.60;1.00
11922;DHT22;6021;51.182;3.160;2023-06-19T10:49:07;21.70;1.00
11922;DHT22;6021;51.182;3.160;2023-06-19T10:51:38;21.60;1.00
11922;DHT22;6021;51.182;3.160;2023-06-19T10:54:07;21.60;1.00
11922;DHT22;6021;51.182;3.160;2023-06-19T10:56:36;21.60;1.00
11922;DHT22;6021;51.182;3.160;2023-06-19T10:59:06;21.60;1.00
11922;DHT22;6021;51.182;3.160;2023-06-19T11:01:38;21.50;1.00
11922;DHT22;6021;51.182;3.160;2023-06-19T11:04:14;21.30;1.00
11922;DHT22;6021;51.182;3.160;2023-06-19T11:06:39;21.30;1.00
11922;DHT22;6021;51.182;3.160;2023-06-19T11:09:08;21.20;1.00
11922;DHT22;6021;51.182;3.160;2023-06-19T11:14:09;21.40;1.00
11922;DHT22;6021;51.182;3.160;2023-06-19T11:16:40;21.30;1.00
11922;DHT22;6021;51.182;3.160;2023-06-19T11:19:14;21.30;1.00
11922;DHT22;6021;51.182;3.160;2023-06-19T11:21:44;21.70;1.00
11922;DHT22;6021;51.182;3.160;2023-06-19T11:24:13;21.80;1.00
11922;DHT22;6021;51.182;3.160;2023-06-19T11:26:42;21.80;1.00
11922;DHT22;6021;51.182;3.160;2023-06-19T11:29:18;21.90;1.00
11922;DHT22;6021;51.182;3.160;2023-06-19T11:31:48;22.10;1.00
11922;DHT22;6021;51.182;3.160;2023-06-19T11:34:17;22.20;1.00
11922;DHT22;6021;51.182;3.160;2023-06-19T11:36:46;22.00;1.00
11922;DHT22;6021;51.182;3.160;2023-06-19T11:39:15;22.10;1.00
11922;DHT22;6021;51.182;3.160;2023-06-19T11:41:44;22.00;1.00
11922;DHT22;6021;51.182;3.160;2023-06-19T11:44:13;22.20;1.00
11922;DHT22;6021;51.182;3.160;2023-06-19T11:46:41;22.20;1.00
11922;DHT22;6021;51.182;3.160;2023-06-19T11:49:14;22.20;1.00
11922;DHT22;6021;51.182;3.160;2023-06-19T11:51:45;22.30;1.00
11922;DHT22;6021;51.182;3.160;2023-06-19T11:54:13;22.30;1.00
11922;DHT22;6021;51.182;3.160;2023-06-19T11:56:45;22.20;1.00
11922;DHT22;6021;51.182;3.160;2023-06-19T11:59:15;22.40;1.00
11922;DHT22;6021;51.182;3.160;2023-06-19T12:01:43;22.20;1.00
11922;DHT22;6021;51.182;3.160;2023-06-19T12:04:12;22.00;1.00
11922;DHT22;6021;51.182;3.160;2023-06-19T12:06:41;22.20;1.00
11922;DHT22;6021;51.182;3.160;2023-06-19T12:09:09;22.30;1.00
11922;DHT22;6021;51.182;3.160;2023-06-19T12:11:38;22.50;1.00
11922;DHT22;6021;51.182;3.160;2023-06-19T12:14:07;22.40;1.00
11922;DHT22;6021;51.182;3.160;2023-06-19T12:16:35;22.60;1.00
11922;DHT22;6021;51.182;3.160;2023-06-19T12:19:04;22.80;1.00
11922;DHT22;6021;51.182;3.160;2023-06-19T12:21:32;22.70;1.00
11922;DHT22;6021;51.182;3.160;2023-06-19T12:24:01;22.70;1.00
11922;DHT22;6021;51.182;3.160;2023-06-19T12:26:29;22.60;1.00
11922;DHT22;6021;51.182;3.160;2023-06-19T12:28:58;23.00;1.00
11922;DHT22;6021;51.182;3.160;2023-06-19T12:31:27;23.00;1.00
11922;DHT22;6021;51.182;3.160;2023-06-19T12:33:55;23.10;1.00
11922;DHT22;6021;51.182;3.160;2023-06-19T12:36:24;23.00;1.00
11922;DHT22;6021;51.182;3.160;2023-06-19T12:38:53;22.90;1.00
11922;DHT22;6021;51.182;3.160;2023-06-19T12:41:22;23.00;1.00
11922;DHT22;6021;51.182;3.160;2023-06-19T12:43:50;23.10;1.00
11922;DHT22;6021;51.182;3.160;2023-06-19T12:46:19;23.30;1.00
11922;DHT22;6021;51.182;3.160;2023-06-19T12:48:48;23.10;1.00
11922;DHT22;6021;51.182;3.160;2023-06-19T12:51:18;22.90;1.00
11922;DHT22;6021;51.182;3.160;2023-06-19T12:53:46;22.80;1.00
11922;DHT22;6021;51.182;3.160;2023-06-19T12:56:15;22.70;1.00
11922;DHT22;6021;51.182;3.160;2023-06-19T12:58:43;22.90;1.00
11922;DHT22;6021;51.182;3.160;2023-06-19T13:01:12;23.00;1.00
11922;DHT22;6021;51.182;3.160;2023-06-19T13:03:40;23.20;1.00
11922;DHT22;6021;51.182;3.160;2023-06-19T13:06:08;23.20;1.00
11922;DHT22;6021;51.182;3.160;2023-06-19T13:08:40;23.30;1.00
11922;DHT22;6021;51.182;3.160;2023-06-19T13:11:08;23.30;1.00
11922;DHT22;6021;51.182;3.160;2023-06-19T13:13:37;23.20;1.00
11922;DHT22;6021;51.182;3.160;2023-06-19T13:16:05;23.00;1.00
11922;DHT22;6021;51.182;3.160;2023-06-19T13:18:33;22.90;1.00
11922;DHT22;6021;51.182;3.160;2023-06-19T13:21:02;22.80;1.00
11922;DHT22;6021;51.182;3.160;2023-06-19T13:23:30;22.70;1.00
11922;DHT22;6021;51.182;3.160;2023-06-19T13:25:59;22.80;1.00
11922;DHT22;6021;51.182;3.160;2023-06-19T13:28:27;22.80;1.00
11922;DHT22;6021;51.182;3.160;2023-06-19T13:30:56;22.90;1.00
11922;DHT22;6021;51.182;3.160;2023-06-19T13:33:24;23.00;1.00
11922;DHT22;6021;51.182;3.160;2023-06-19T13:35:55;23.10;1.00
11922;DHT22;6021;51.182;3.160;2023-06-19T13:38:24;23.20;1.00
11922;DHT22;6021;51.182;3.160;2023-06-19T13:40:52;23.10;1.00
11922;DHT22;6021;51.182;3.160;2023-06-19T13:43:22;22.90;1.00
11922;DHT22;6021;51.182;3.160;2023-06-19T13:45:51;22.80;1.00
11922;DHT22;6021;51.182;3.160;2023-06-19T13:48:19;22.70;1.00
11922;DHT22;6021;51.182;3.160;2023-06-19T13:50:47;22.80;1.00
11922;DHT22;6021;51.182;3.160;2023-06-19T13:53:16;22.80;1.00
11922;DHT22;6021;51.182;3.160;2023-06-19T13:55:44;22.70;1.00
11922;DHT22;6021;51.182;3.160;2023-06-19T13:58:18;22.70;1.00
11922;DHT22;6021;51.182;3.160;2023-06-19T14:00:47;22.60;1.00
11922;DHT22;6021;51.182;3.160;2023-06-19T14:03:17;22.50;1.00
11922;DHT22;6021;51.182;3.160;2023-06-19T14:05:47;22.40;1.00
11922;DHT22;6021;51.182;3.160;2023-06-19T14:08:15;22.40;1.00
11922;DHT22;6021;51.182;3.160;2023-06-19T14:10:43;22.30;1.00
11922;DHT22;6021;51.182;3.160;2023-06-19T14:13:15;22.40;1.00
11922;DHT22;6021;51.182;3.160;2023-06-19T14:15:45;22.40;1.00
11922;DHT22;6021;51.182;3.160;2023-06-19T14:18:13;22.40;1.00
11922;DHT22;6021;51.182;3.160;2023-06-19T14:20:42;22.40;1.00
11922;DHT22;6021;51.182;3.160;2023-06-19T14:23:10;22.30;1.00
11922;DHT22;6021;51.182;3.160;2023-06-19T14:25:43;22.30;1.00
11922;DHT22;6021;51.182;3.160;2023-06-19T14:28:11;22.20;1.00
11922;DHT22;6021;51.182;3.160;2023-06-19T14:30:41;22.20;1.00
11922;DHT22;6021;51.182;3.160;2023-06-19T14:33:09;22.20;1.00
11922;DHT22;6021;51.182;3.160;2023-06-19T14:35:39;22.20;1.00
11922;DHT22;6021;51.182;3.160;2023-06-19T14:38:08;22.20;1.00
11922;DHT22;6021;51.182;3.160;2023-06-19T14:40:36;22.20;1.00
11922;DHT22;6021;51.182;3.160;2023-06-19T14:43:05;22.20;1.00
11922;DHT22;6021;51.182;3.160;2023-06-19T14:45:33;22.20;1.00
11922;DHT22;6021;51.182;3.160;2023-06-19T14:48:02;22.20;1.00
11922;DHT22;6021;51.182;3.160;2023-06-19T14:50:30;22.20;1.00
11922;DHT22;6021;51.182;3.160;2023-06-19T14:52:58;22.20;1.00
11922;DHT22;6021;51.182;3.160;2023-06-19T14:55:27;22.20;1.00
11922;DHT22;6021;51.182;3.160;2023-06-19T14:57:55;22.20;1.00
11922;DHT22;6021;51.182;3.160;2023-06-19T15:00:24;22.20;1.00
11922;DHT22;6021;51.182;3.160;2023-06-19T15:02:52;22.20;1.00
11922;DHT22;6021;51.182;3.160;2023-06-19T15:05:21;22.20;1.00
11922;DHT22;6021;51.182;3.160;2023-06-19T15:07:49;22.30;1.00
11922;DHT22;6021;51.182;3.160;2023-06-19T15:10:19;22.30;1.00
11922;DHT22;6021;51.182;3.160;2023-06-19T15:12:48;22.30;1.00
11922;DHT22;6021;51.182;3.160;2023-06-19T15:15:16;22.30;1.00
11922;DHT22;6021;51.182;3.160;2023-06-19T15:17:44;22.30;1.00
11922;DHT22;6021;51.182;3.160;2023-06-19T15:20:13;22.40;1.00
11922;DHT22;6021;51.182;3.160;2023-06-19T15:22:43;22.40;1.00
11922;DHT22;6021;51.182;3.160;2023-06-19T15:25:11;22.50;1.00
11922;DHT22;6021;51.182;3.160;2023-06-19T15:27:40;22.50;1.00
11922;DHT22;6021;51.182;3.160;2023-06-19T15:30:09;22.60;1.00
11922;DHT22;6021;51.182;3.160;2023-06-19T15:32:37;22.60;1.00
11922;DHT22;6021;51.182;3.160;2023-06-19T15:35:06;22.60;1.00
11922;DHT22;6021;51.182;3.160;2023-06-19T15:37:34;22.60;1.00
11922;DHT22;6021;51.182;3.160;2023-06-19T15:40:03;22.60;1.00
11922;DHT22;6021;51.182;3.160;2023-06-19T15:42:37;22.60;1.00
11922;DHT22;6021;51.182;3.160;2023-06-19T15:45:03;22.60;1.00
11922;DHT22;6021;51.182;3.160;2023-06-19T15:47:31;22.50;1.00
11922;DHT22;6021;51.182;3.160;2023-06-19T15:50:01;22.40;1.00
11922;DHT22;6021;51.182;3.160;2023-06-19T15:52:30;22.40;1.00
11922;DHT22;6021;51.182;3.160;2023-06-19T15:55:00;22.40;1.00
11922;DHT22;6021;51.182;3.160;2023-06-19T15:57:28;22.30;1.00
11922;DHT22;6021;51.182;3.160;2023-06-19T15:59:56;22.30;1.00
11922;DHT22;6021;51.182;3.160;2023-06-19T16:02:25;22.30;1.00
11922;DHT22;6021;51.182;3.160;2023-06-19T16:04:53;22.20;1.00
11922;DHT22;6021;51.182;3.160;2023-06-19T16:07:22;22.20;1.00
11922;DHT22;6021;51.182;3.160;2023-06-19T16:09:50;22.10;1.00
11922;DHT22;6021;51.182;3.160;2023-06-19T16:12:19;22.10;1.00